Latest Weather Observations for Armidale Airport

IDN60801

Issued at 9:05 pm EST Saturday 23 August 2014 (issued every 30 minutes, with the page automatically refreshed every 10 minutes)

About weather observations | Map of weather stations | Latest weather observations for NSW | Other Formats
Station Details ID: 056238 Name: ARMIDALE AIRPORT AWS Lat: -30.53 Lon: 151.62 Height: 1079.0 m
Data from the previous 72 hours. | See also: Recent months for locations in New South Wales
Date/Time
EST
Temp
°C
App
Temp
°C
Dew
Point
Rel
Hum
%
Delta-T
°C
Wind Press
QNH
hPa
Press
MSL
hPa
Rain
since 9 am
mm
Dir
 
Spd
km/h
Gust
km/h
Spd
kts
Gust
kts
23/09:00pm 7.1 3.2 7.0 99 0.0 E 17 20 9 11 1028.5 1028.4 0.8
23/08:59pm 7.1 3.6 7.0 99 0.0 E 15 20 8 11 1028.5 - 0.8
23/08:30pm 7.3 2.9 7.2 99 0.0 ESE 20 28 11 15 1028.4 - 0.8
23/08:00pm 7.5 3.3 7.4 99 0.0 E 19 26 10 14 1028.4 1028.3 0.8
23/07:30pm 7.7 3.3 7.6 99 0.1 E 20 26 11 14 1028.0 - 0.8
23/07:00pm 7.7 3.9 7.6 99 0.0 E 17 22 9 12 1027.9 1027.8 0.8
23/06:54pm 7.7 3.9 7.6 99 0.1 E 17 22 9 12 1027.9 - 0.8
23/06:42pm 7.8 4.4 7.7 99 0.0 E 15 20 8 11 1027.9 - 0.6
23/06:30pm 7.8 4.4 7.7 99 0.1 E 15 24 8 13 1027.9 - 0.6
23/06:00pm 7.8 4.0 7.5 98 0.1 ESE 17 22 9 12 1027.8 1027.7 0.6
23/05:57pm 7.8 4.0 7.5 98 0.2 ESE 17 22 9 12 1027.8 - 0.6
23/05:30pm 8.0 4.2 7.7 98 0.2 ESE 17 26 9 14 1027.4 - 0.6
23/05:00pm 8.3 5.4 8.0 98 0.2 ESE 13 19 7 10 1026.8 1026.7 0.6
23/04:30pm 8.7 5.5 8.4 98 0.2 ESE 15 22 8 12 1026.8 - 0.2
23/04:00pm 8.8 5.6 8.5 98 0.2 ESE 15 20 8 11 1026.8 1026.7 0.2
23/03:30pm 8.9 5.4 8.6 98 0.2 ESE 17 24 9 13 1026.7 - 0.2
23/03:00pm 9.4 5.8 8.5 94 0.5 ESE 17 22 9 12 1026.7 1026.6 0.2
23/02:30pm 9.3 5.5 7.7 90 0.8 ESE 17 26 9 14 1026.8 - 0.0
23/02:00pm 9.7 5.8 7.3 85 1.2 SE 17 24 9 13 1026.8 1026.7 0.0
23/01:30pm 9.9 6.1 7.7 86 1.1 ESE 17 24 9 13 1026.9 - 0.0
23/01:00pm 10.1 5.6 6.8 80 1.6 ESE 20 32 11 17 1027.0 1026.9 0.0
23/12:30pm 10.6 6.3 7.7 82 1.5 ESE 20 28 11 15 1027.1 - 0.0
23/12:02pm 10.4 5.8 8.2 86 1.1 E 22 30 12 16 1027.5 - 0.0
23/12:00pm 10.1 5.0 7.5 84 1.3 E 24 32 13 17 1027.5 1027.3 0.0
23/11:30am 9.4 5.2 8.3 93 0.6 E 20 32 11 17 1028.1 - 0.0
23/11:00am 8.9 5.0 8.6 98 0.2 E 19 24 10 13 1028.2 1028.1 0.0
23/10:30am 8.9 4.8 8.6 98 0.2 E 20 28 11 15 1028.6 - 0.0
23/10:00am 8.6 3.6 8.2 97 0.2 E 24 33 13 18 1028.7 1028.6 0.0
23/09:30am 8.3 4.0 8.0 98 0.2 E 20 33 11 18 1028.7 - 0.0
23/08:30am 7.3 1.3 7.2 99 0.0 E 28 37 15 20 1028.4 - 0.0
23/08:00am 7.2 1.6 7.2 100 0.0 E 26 37 14 20 1028.0 1027.9 0.0
23/07:47am 7.1 1.9 7.1 100 0.0 E 24 35 13 19 1027.7 - 0.0
23/07:30am 7.1 2.6 7.1 100 0.0 E 20 26 11 14 1027.5 - 0.0
23/07:00am 6.7 1.4 6.7 100 0.0 E 24 33 13 18 1027.2 1027.1 0.0
23/06:44am 6.7 1.8 6.7 100 0.0 E 22 30 12 16 1027.1 - 0.0
23/06:42am 6.7 1.8 6.7 100 0.0 E 22 28 12 15 1027.1 - 0.0
23/06:30am 6.8 1.9 6.8 100 0.0 E 22 32 12 17 1027.0 - 0.0
23/06:07am 6.9 2.6 6.9 100 0.0 E 19 26 10 14 1026.8 - 0.0
23/06:00am 6.8 2.3 6.8 100 0.0 E 20 28 11 15 1026.8 1026.7 0.0
23/05:30am 6.7 1.4 6.7 100 0.0 E 24 39 13 21 1026.6 - 0.0
23/05:21am 6.7 1.4 6.7 100 0.0 E 24 33 13 18 1026.6 - 0.0
23/05:10am 6.8 1.5 6.8 100 0.0 E 24 33 13 18 1026.5 - 0.0
23/05:00am 6.8 2.3 6.8 100 0.0 E 20 32 11 17 1026.4 1026.2 0.0
23/04:30am 6.7 2.7 6.7 100 0.0 E 17 24 9 13 1026.2 - 0.0
23/04:00am 6.8 2.5 6.8 100 0.0 E 19 28 10 15 1026.1 1026.0 0.0
23/03:30am 6.7 2.3 6.7 100 0.0 E 19 26 10 14 1026.0 - 0.0
23/03:00am 6.8 2.3 6.8 100 0.0 E 20 26 11 14 1026.7 1026.6 0.0
23/02:30am 6.7 2.3 6.7 100 0.0 E 19 26 10 14 1026.8 - 0.0
23/02:00am 6.8 2.3 6.8 100 0.0 E 20 26 11 14 1027.0 1026.9 0.0
23/01:30am 6.9 3.0 6.9 100 0.0 E 17 26 9 14 1027.4 - 0.0
23/01:27am 6.8 2.5 6.8 100 0.0 E 19 26 10 14 1027.4 - 0.0
23/01:13am 6.9 2.6 6.9 100 0.0 E 19 28 10 15 1027.2 - 0.0
23/01:00am 6.9 2.6 6.9 100 0.0 E 19 26 10 14 1027.4 1027.2 0.0
23/12:55am 6.8 2.3 6.8 100 0.0 E 20 28 11 15 1027.4 - 0.0
23/12:30am 7.0 2.7 7.0 100 0.0 E 19 24 10 13 1027.6 - 0.0
23/12:15am 6.9 2.6 6.8 99 0.0 E 19 26 10 14 1027.5 - 0.0
23/12:08am 6.8 2.2 6.7 99 0.0 E 20 30 11 16 1027.5 - 0.0
23/12:00am 6.8 2.2 6.7 99 0.0 ESE 20 30 11 16 1027.5 1027.3 0.0
 
Date/Time
EST
Temp
°C
App
Temp
°C
Dew
Point
Rel
Hum
%
Delta-T
°C
Wind Press
QNH
hPa
Press
MSL
hPa
Rain
since 9 am
mm
Dir
 
Spd
km/h
Gust
km/h
Spd
kts
Gust
kts
22/11:34pm 6.9 2.9 6.8 99 0.0 ESE 17 24 9 13 1027.6 - 0.0
22/11:30pm 6.9 2.6 6.8 99 0.0 ESE 19 24 10 13 1027.7 - 0.0
22/11:00pm 7.2 3.3 6.9 98 0.1 ESE 17 22 9 12 1027.8 1027.7 0.0
22/10:44pm 7.2 2.9 6.9 98 0.1 E 19 28 10 15 1027.9 - 0.0
22/10:30pm 7.1 3.1 6.8 98 0.1 E 17 26 9 14 1027.9 - 0.0
22/10:21pm 7.2 2.9 6.9 98 0.1 E 19 26 10 14 1028.0 - 0.0
22/10:00pm 7.3 2.8 7.0 98 0.1 E 20 26 11 14 1028.1 1028.0 0.0
22/09:43pm 7.3 3.4 7.0 98 0.1 E 17 20 9 11 1028.0 - 0.0
22/09:30pm 7.1 3.1 6.8 98 0.1 E 17 22 9 12 1028.2 - 0.0
22/09:00pm 7.2 3.3 6.9 98 0.1 E 17 24 9 13 1028.2 1028.1 0.0
22/08:58pm 7.2 3.3 6.9 98 0.1 E 17 24 9 13 1028.2 - 0.0
22/08:30pm 7.6 3.7 7.3 98 0.1 E 17 24 9 13 1028.2 - 0.0
22/08:26pm 7.6 3.4 7.3 98 0.1 E 19 24 10 13 1028.1 - 0.0
22/08:00pm 7.6 3.2 7.3 98 0.1 E 20 24 11 13 1028.0 1027.9 0.0
22/07:30pm 7.7 2.9 7.4 98 0.1 E 22 32 12 17 1027.7 - 0.0
22/07:00pm 7.7 3.1 6.5 92 0.6 E 20 28 11 15 1027.7 1027.6 0.0
22/06:30pm 8.3 3.9 6.4 88 0.9 E 19 22 10 12 1027.4 - 0.0
22/06:00pm 9.0 5.1 5.2 77 1.8 E 15 22 8 12 1027.0 1026.9 0.0
22/05:30pm 9.5 5.4 4.3 70 2.5 E 15 19 8 10 1026.6 - 0.0
22/05:00pm 10.4 5.1 3.0 60 3.4 E 20 33 11 18 1026.2 1026.1 0.0
22/04:30pm 10.6 5.4 3.4 61 3.4 E 20 28 11 15 1026.1 - 0.0
22/04:00pm 11.1 6.0 4.1 62 3.3 ESE 20 28 11 15 1026.1 1026.0 0.0
22/03:30pm 12.6 7.6 4.6 58 3.9 ESE 20 33 11 18 1025.8 - 0.0
22/03:00pm 12.1 6.1 3.1 54 4.2 E 24 35 13 19 1026.0 1025.9 0.0
22/02:30pm 11.7 6.2 4.0 59 3.7 ESE 22 32 12 17 1026.1 - 0.0
22/02:00pm 11.9 6.1 4.6 61 3.5 ESE 24 33 13 18 1026.5 1026.3 0.0
22/01:30pm 11.8 5.9 4.1 59 3.7 ESE 24 33 13 18 1026.8 - 0.0
22/01:00pm 12.6 7.8 7.3 70 2.7 ESE 22 32 12 17 1027.0 1026.9 0.0
22/12:30pm 11.4 5.8 5.3 66 3.0 ESE 24 37 13 20 1027.4 - 0.0
22/12:00pm 10.4 4.0 5.4 71 2.4 ESE 28 39 15 21 1027.8 1027.7 0.0
22/11:30am 11.0 5.5 6.0 71 2.5 E 24 39 13 21 1028.1 - 0.0
22/11:00am 10.4 4.5 5.6 72 2.3 E 26 35 14 19 1028.7 1028.6 0.0
22/10:30am 9.6 3.3 5.6 76 1.9 E 28 37 15 20 1028.6 - 0.0
22/10:00am 8.8 2.6 6.1 83 1.3 E 28 41 15 22 1028.9 1028.8 0.0
22/09:49am 8.9 3.2 6.5 85 1.2 E 26 37 14 20 1028.9 - 0.0
22/09:30am 8.3 2.6 6.9 91 0.7 E 26 39 14 21 1028.8 - 0.0
22/09:00am 7.6 2.0 7.3 98 0.1 E 26 33 14 18 1028.8 1028.7 0.8
22/08:30am 7.8 3.4 7.5 98 0.2 E 20 33 11 18 1028.6 - 0.8
22/08:00am 6.6 1.6 6.5 99 0.0 E 22 33 12 18 1028.4 1028.3 0.8
22/07:30am 6.3 1.6 6.2 99 0.0 E 20 28 11 15 1027.9 - 0.8
22/07:00am 6.0 1.3 5.9 99 0.0 E 20 28 11 15 1027.7 1027.6 0.8
22/06:30am 5.7 1.1 5.7 100 0.0 E 19 22 10 12 1027.4 - 0.8
22/06:00am 5.7 1.5 5.7 100 0.0 E 17 24 9 13 1027.0 1026.9 0.8
22/05:45am 5.7 1.1 5.7 100 0.0 E 19 26 10 14 1026.8 - 0.8
22/05:30am 5.7 1.1 5.7 100 0.0 E 19 26 10 14 1026.8 - 0.8
22/05:12am 5.6 1.0 5.6 100 0.0 E 19 22 10 12 1026.7 - 0.8
22/05:00am 5.6 1.4 5.6 100 0.0 E 17 22 9 12 1026.7 1026.6 0.8
22/04:31am 5.4 1.5 5.3 99 0.0 E 15 20 8 11 1026.5 - 0.8
22/04:30am 5.3 1.4 5.2 99 0.0 E 15 20 8 11 1026.5 - 0.8
22/04:00am 5.2 1.6 5.1 99 0.0 E 13 17 7 9 1026.5 1026.3 0.6
22/03:47am 5.1 1.1 4.8 98 0.1 E 15 19 8 10 1026.2 - 0.6
22/03:30am 5.3 0.9 5.0 98 0.1 E 17 22 9 12 1026.2 - 0.6
22/03:00am 5.4 1.1 5.1 98 0.1 E 17 20 9 11 1026.5 1026.3 0.6
22/02:30am 5.4 0.5 5.1 98 0.1 E 20 28 11 15 1026.6 - 0.6
22/02:27am 5.4 0.1 5.1 98 0.1 E 22 28 12 15 1026.6 - 0.6
22/02:14am 5.3 0.4 5.2 99 0.0 E 20 30 11 16 1026.7 - 0.6
22/02:00am 5.2 0.4 4.9 98 0.1 E 19 26 10 14 1026.8 1026.7 0.6
22/01:30am 5.5 1.2 5.2 98 0.1 E 17 22 9 12 1027.0 - 0.6
22/01:00am 6.2 1.5 5.9 98 0.1 E 20 26 11 14 1027.2 1027.1 0.6
22/12:30am 6.2 1.5 5.9 98 0.1 E 20 28 11 15 1027.5 - 0.6
22/12:13am 6.4 1.7 6.1 98 0.1 E 20 24 11 13 1027.6 - 0.6
22/12:00am 6.4 1.8 6.3 99 0.0 E 20 26 11 14 1027.6 1027.5 0.6
 
Date/Time
EST
Temp
°C
App
Temp
°C
Dew
Point
Rel
Hum
%
Delta-T
°C
Wind Press
QNH
hPa
Press
MSL
hPa
Rain
since 9 am
mm
Dir
 
Spd
km/h
Gust
km/h
Spd
kts
Gust
kts
21/11:40pm 6.6 1.6 6.5 99 0.0 E 22 30 12 16 1027.5 - 0.6
21/11:30pm 6.8 1.5 6.7 99 0.0 E 24 32 13 17 1027.4 - 0.6
21/11:12pm 6.9 2.0 6.8 99 0.0 E 22 30 12 16 1027.6 - 0.6
21/11:00pm 7.0 2.7 6.9 99 0.0 E 19 26 10 14 1027.6 1027.5 0.6
21/10:52pm 6.9 2.6 6.8 99 0.0 E 19 28 10 15 1027.6 - 0.6
21/10:30pm 7.0 2.5 6.9 99 0.0 E 20 26 11 14 1027.4 - 0.6
21/10:00pm 7.0 2.1 6.9 99 0.0 ESE 22 30 12 16 1027.2 1027.1 0.2
21/09:30pm 7.2 2.9 6.9 98 0.1 E 19 24 10 13 1027.0 - 0.0
21/09:16pm 7.5 4.0 7.2 98 0.1 ESE 15 20 8 11 1027.4 - 0.0
21/09:00pm 7.7 3.9 7.4 98 0.1 ESE 17 24 9 13 1027.2 1027.1 0.0
21/08:30pm 7.7 3.3 7.3 97 0.2 E 20 28 11 15 1026.9 - 0.0
21/08:00pm 7.8 4.0 7.4 97 0.2 E 17 22 9 12 1026.4 1026.2 0.0
21/07:54pm 7.8 3.5 7.1 95 0.3 E 19 26 10 14 1026.4 - 0.0
21/07:30pm 7.6 3.1 6.9 95 0.3 ENE 20 28 11 15 1026.2 - 0.0
21/07:00pm 7.7 3.9 6.0 89 0.8 E 15 20 8 11 1025.9 1025.8 0.0
21/06:30pm 7.9 4.0 5.4 84 1.2 E 15 20 8 11 1025.6 - 0.0
21/06:00pm 8.4 4.4 5.0 79 1.6 E 15 20 8 11 1025.1 1025.0 0.0
21/05:30pm 9.3 4.2 4.3 71 2.4 E 20 30 11 16 1024.8 - 0.0
21/05:00pm 10.5 5.6 4.0 64 3.1 E 19 30 10 16 1024.6 1024.4 0.0
21/04:30pm 11.3 5.4 3.8 60 3.6 ESE 24 33 13 18 1024.2 - 0.0
21/04:00pm 11.6 6.5 3.9 59 3.6 E 20 28 11 15 1023.9 1023.7 0.0
21/03:30pm 11.9 6.9 3.7 57 3.9 E 19 24 10 13 1023.8 - 0.0
21/03:00pm 12.9 7.7 2.5 49 4.8 ESE 19 26 10 14 1023.7 1023.5 0.0
21/02:30pm 12.7 8.4 3.1 52 4.5 ESE 15 20 8 11 1023.9 - 0.0
21/02:00pm 12.1 7.8 3.3 55 4.1 ESE 15 20 8 11 1024.0 1023.8 0.0
21/01:30pm 12.5 8.3 3.7 55 4.2 E 15 20 8 11 1024.2 - 0.0
21/01:00pm 12.0 7.5 4.0 58 3.8 SE 17 24 9 13 1024.6 1024.4 0.0
21/12:30pm 12.5 7.6 4.2 57 4.0 E 19 30 10 16 1024.9 - 0.0
21/12:00pm 11.5 6.6 4.0 60 3.6 ESE 19 26 10 14 1025.2 1025.1 0.0
21/11:30am 10.9 6.0 4.1 63 3.2 E 19 24 10 13 1025.8 - 0.0
21/11:00am 10.3 5.3 4.7 68 2.7 E 20 28 11 15 1025.9 1025.8 0.0
21/10:30am 9.4 4.5 5.0 74 2.1 ESE 20 28 11 15 1026.4 - 0.0
21/10:00am 8.5 3.7 4.9 78 1.7 ESE 19 26 10 14 1026.4 1026.2 0.0
21/09:56am 8.7 4.1 5.4 80 1.6 ESE 19 26 10 14 1026.4 - 0.0
21/09:30am 8.2 3.5 6.0 86 1.1 E 20 24 11 13 1026.6 - 0.0
21/09:29am 7.7 2.8 5.2 84 1.2 E 20 24 11 13 1026.6 - 0.0
21/09:00am 6.8 2.0 4.6 86 1.0 E 19 26 10 14 1026.6 1026.4 0.2
21/08:56am 7.1 2.2 4.9 86 1.0 E 20 26 11 14 1026.5 - 0.2
21/08:30am 7.0 2.3 5.3 89 0.8 E 19 28 10 15 1026.5 - 0.2
21/08:00am 5.5 1.2 5.2 98 0.1 E 17 22 9 12 1026.4 1026.2 0.2
21/07:30am 5.2 0.4 4.9 98 0.1 E 19 24 10 13 1026.0 - 0.2
21/07:00am 5.0 0.6 4.7 98 0.1 E 17 24 9 13 1025.8 1025.6 0.2
21/06:30am 4.9 0.5 4.6 98 0.1 E 17 22 9 12 1025.6 - 0.2
21/06:00am 4.6 0.5 4.3 98 0.1 E 15 19 8 10 1025.2 1025.1 0.2
21/05:30am 4.6 0.5 4.3 98 0.1 E 15 19 8 10 1024.9 - 0.2
21/05:00am 5.2 1.6 4.9 98 0.1 E 13 19 7 10 1024.9 1024.7 0.2
21/04:30am 5.3 0.9 5.0 98 0.1 ESE 17 24 9 13 1024.8 - 0.2
21/04:00am 5.2 0.4 4.9 98 0.1 ESE 19 30 10 16 1024.5 1024.3 0.2
21/03:31am 5.2 0.8 4.9 98 0.1 ESE 17 26 9 14 1024.5 - 0.2
21/03:30am 5.2 0.8 4.9 98 0.1 ESE 17 26 9 14 1024.4 - 0.2
21/03:00am 5.0 1.3 4.7 98 0.1 ESE 13 20 7 11 1024.5 1024.3 0.2
21/02:44am 4.6 1.6 4.3 98 0.1 E 9 15 5 8 1024.6 - 0.2
21/02:30am 4.4 1.0 4.1 98 0.1 ESE 11 19 6 10 1024.5 - 0.2
21/02:18am 4.6 0.9 4.3 98 0.1 ESE 13 20 7 11 1024.5 - 0.2
21/02:00am 4.3 0.9 4.0 98 0.1 E 11 15 6 8 1024.6 1024.4 0.2
21/01:41am 3.5 -0.4 3.2 98 0.1 E 13 15 7 8 1024.6 - 0.2
21/01:30am 2.6 -1.5 2.3 98 0.1 E 13 15 7 8 1024.6 - 0.2
21/01:00am 2.8 -1.3 2.5 98 0.1 E 13 15 7 8 1024.6 1024.4 0.2
21/12:30am 2.9 -1.2 2.3 96 0.3 E 13 15 7 8 1024.7 - 0.2
21/12:00am 4.6 0.7 3.4 92 0.5 ESE 13 17 7 9 1024.6 1024.4 0.2
 
Date/Time
EST
Temp
°C
App
Temp
°C
Dew
Point
Rel
Hum
%
Delta-T
°C
Wind Press
QNH
hPa
Press
MSL
hPa
Rain
since 9 am
mm
Dir
 
Spd
km/h
Gust
km/h
Spd
kts
Gust
kts
20/11:30pm 4.9 0.9 3.1 88 0.8 ESE 13 17 7 9 1024.5 - 0.2
20/11:00pm 4.9 0.9 2.6 85 1.0 ESE 13 19 7 10 1024.6 1024.4 0.2
20/10:30pm 5.2 0.7 2.4 82 1.2 SE 15 20 8 11 1024.6 - 0.2
20/10:00pm 5.3 0.8 2.3 81 1.3 ESE 15 19 8 10 1024.4 1024.2 0.2
20/09:30pm 6.1 1.3 2.4 77 1.6 ESE 17 22 9 12 1024.7 - 0.2

Other Formats:

Comma delimited format used in spreadsheet applications
http://www.bom.gov.au/fwo/IDN60801/IDN60801.95773.axf

JavaScript Object Notation format (JSON) in row-major order
http://www.bom.gov.au/fwo/IDN60801/IDN60801.95773.json